createdAt,value
2022-09-25T00:01:31.532Z,24.87
2022-09-25T00:04:01.556Z,25.77
2022-09-25T00:06:30.859Z,28.47
2022-09-25T00:08:59.668Z,29.47
2022-09-25T00:11:29.973Z,25.13
2022-09-25T00:13:59.893Z,23.10
2022-09-25T00:16:30.540Z,22.70
2022-09-25T00:19:18.314Z,22.97
2022-09-25T00:21:48.787Z,23.57
2022-09-25T00:24:16.987Z,28.13
2022-09-25T00:26:45.199Z,29.10
2022-09-25T00:29:18.033Z,29.40
2022-09-25T00:31:46.705Z,30.13
2022-09-25T00:34:16.259Z,30.07
2022-09-25T00:36:44.512Z,32.20
2022-09-25T00:39:12.757Z,28.77
2022-09-25T00:41:41.153Z,22.73
2022-09-25T00:44:42.530Z,20.97
2022-09-25T00:47:13.914Z,19.17
2022-09-25T00:49:43.849Z,19.20
2022-09-25T00:52:14.022Z,19.40
2022-09-25T00:54:45.672Z,19.20
2022-09-25T00:57:16.878Z,19.37
2022-09-25T00:59:48.558Z,19.07
2022-09-25T01:02:24.888Z,19.60
2022-09-25T01:04:57.483Z,21.00
2022-09-25T01:07:25.872Z,22.33
2022-09-25T01:09:55.123Z,22.23
2022-09-25T01:12:25.904Z,21.80
2022-09-25T01:14:55.138Z,20.40
2022-09-25T01:17:29.388Z,20.30
2022-09-25T01:20:10.425Z,20.93
2022-09-25T01:22:52.151Z,21.23
2022-09-25T01:25:35.301Z,22.63
2022-09-25T01:28:19.269Z,21.50
2022-09-25T01:30:55.503Z,23.73
2022-09-25T01:33:28.494Z,23.60
2022-09-25T01:36:03.780Z,23.30
2022-09-25T01:38:36.023Z,25.00
2022-09-25T01:41:09.486Z,22.70
2022-09-25T01:43:41.067Z,25.33
2022-09-25T01:46:16.370Z,27.90
2022-09-25T01:48:48.661Z,27.00
2022-09-25T01:51:19.936Z,28.33
2022-09-25T01:53:52.609Z,24.60
2022-09-25T01:56:33.193Z,26.60
2022-09-25T01:59:06.758Z,26.03
2022-09-25T02:01:41.799Z,25.27
2022-09-25T02:04:15.313Z,25.13
2022-09-25T02:06:52.532Z,25.80
2022-09-25T02:09:27.235Z,26.00
2022-09-25T02:12:00.119Z,26.97
2022-09-25T02:14:34.290Z,27.23
2022-09-25T02:17:10.764Z,28.37
2022-09-25T02:19:56.933Z,28.63
2022-09-25T02:22:30.004Z,34.90
2022-09-25T02:25:03.977Z,32.73
2022-09-25T02:27:34.107Z,31.00
2022-09-25T02:30:02.609Z,30.37
2022-09-25T02:32:34.044Z,33.57
2022-09-25T02:35:02.847Z,33.30
2022-09-25T02:37:31.047Z,32.07
2022-09-25T02:40:02.762Z,30.20
2022-09-25T02:42:40.534Z,30.50
2022-09-25T02:45:16.697Z,32.73
2022-09-25T02:47:58.422Z,33.10
2022-09-25T02:50:30.889Z,28.67
2022-09-25T02:53:07.150Z,30.60
2022-09-25T02:55:41.173Z,29.90
2022-09-25T02:58:14.735Z,29.13
2022-09-25T03:00:47.362Z,26.80
2022-09-25T03:03:20.002Z,30.17
2022-09-25T03:05:50.505Z,26.67
2022-09-25T03:08:36.709Z,25.77
2022-09-25T03:11:05.819Z,30.33
2022-09-25T03:13:34.643Z,24.50
2022-09-25T03:16:05.837Z,25.70
2022-09-25T03:18:35.689Z,28.30
2022-09-25T03:21:04.286Z,27.07
2022-09-25T03:23:33.262Z,31.53
2022-09-25T03:26:01.568Z,30.07
2022-09-25T03:28:30.176Z,28.83
2022-09-25T03:31:03.038Z,33.23
2022-09-25T03:33:36.346Z,35.37
2022-09-25T03:36:08.579Z,34.70
2022-09-25T03:38:36.960Z,35.20
2022-09-25T03:41:08.801Z,33.20
2022-09-25T03:43:37.748Z,33.83
2022-09-25T03:46:06.404Z,39.70
2022-09-25T03:48:36.412Z,38.73
2022-09-25T03:51:05.409Z,33.47
2022-09-25T03:53:33.976Z,32.90
2022-09-25T03:56:03.055Z,27.63
2022-09-25T03:58:31.561Z,28.50
2022-09-25T04:00:59.937Z,25.40
2022-09-25T04:03:29.464Z,27.87
2022-09-25T04:06:00.685Z,28.10
2022-09-25T04:08:29.455Z,24.57
2022-09-25T04:10:59.242Z,27.40
2022-09-25T04:13:30.066Z,26.23
2022-09-25T04:16:01.134Z,23.87
2022-09-25T04:18:31.819Z,22.77
2022-09-25T04:21:01.591Z,21.60
2022-09-25T04:23:30.003Z,22.20
2022-09-25T04:25:58.430Z,22.93
2022-09-25T04:28:27.653Z,22.23
2022-09-25T04:30:55.986Z,22.30
2022-09-25T04:33:41.741Z,24.33
2022-09-25T04:36:11.966Z,26.57
2022-09-25T04:38:40.963Z,26.43
2022-09-25T04:41:09.548Z,25.37
2022-09-25T04:43:38.204Z,25.00
2022-09-25T04:46:08.919Z,24.80
2022-09-25T04:48:37.917Z,36.03
2022-09-25T04:51:07.096Z,31.23
2022-09-25T04:53:38.481Z,37.87
2022-09-25T04:56:13.877Z,32.40
2022-09-25T04:58:45.830Z,42.07
2022-09-25T05:01:14.252Z,43.53
2022-09-25T05:03:43.030Z,44.00
2022-09-25T05:06:11.629Z,45.67
2022-09-25T05:08:41.148Z,37.73
2022-09-25T05:11:09.598Z,36.93
2022-09-25T05:13:37.692Z,41.73
2022-09-25T05:16:06.160Z,40.03
2022-09-25T05:18:34.398Z,43.00
2022-09-25T05:21:05.287Z,41.17
2022-09-25T05:23:33.477Z,41.00
2022-09-25T05:26:03.083Z,49.97
2022-09-25T05:28:32.055Z,46.13
2022-09-25T05:31:02.856Z,39.03
2022-09-25T05:33:31.234Z,46.33
2022-09-25T05:36:02.700Z,40.20
2022-09-25T05:38:33.230Z,43.13
2022-09-25T05:41:05.463Z,45.23
2022-09-25T05:43:34.518Z,42.37
2022-09-25T05:46:03.838Z,42.27
2022-09-25T05:48:32.166Z,41.90
2022-09-25T05:51:00.523Z,47.30
2022-09-25T05:53:30.511Z,54.67
2022-09-25T05:56:00.561Z,45.07
2022-09-25T05:58:31.697Z,45.30
2022-09-25T06:01:04.233Z,42.20
2022-09-25T06:03:32.748Z,42.93
2022-09-25T06:06:02.156Z,41.83
2022-09-25T06:08:32.104Z,41.87
2022-09-25T06:11:01.338Z,40.33
2022-09-25T06:13:33.142Z,42.57
2022-09-25T06:16:02.685Z,47.80
2022-09-25T06:18:30.916Z,44.60
2022-09-25T06:21:02.424Z,40.77
2022-09-25T06:23:31.198Z,39.53
2022-09-25T06:26:03.205Z,44.23
2022-09-25T06:28:33.031Z,41.13
2022-09-25T06:31:02.179Z,40.20
2022-09-25T06:33:31.195Z,44.77
2022-09-25T06:36:00.358Z,40.33
2022-09-25T06:38:28.521Z,39.77
2022-09-25T06:40:59.764Z,36.70
2022-09-25T06:43:28.698Z,41.33
2022-09-25T06:46:02.496Z,39.37
2022-09-25T06:48:31.217Z,35.87
2022-09-25T06:51:01.043Z,33.97
2022-09-25T06:53:29.349Z,33.47
2022-09-25T06:55:59.831Z,32.07
2022-09-25T06:58:28.926Z,32.63
2022-09-25T07:00:58.983Z,32.70
2022-09-25T07:03:44.846Z,30.60
2022-09-25T07:06:15.093Z,32.30
2022-09-25T07:08:44.119Z,35.70
2022-09-25T07:11:14.777Z,39.83
2022-09-25T07:13:43.450Z,34.30
2022-09-25T07:16:15.898Z,33.63
2022-09-25T07:18:44.897Z,35.43
2022-09-25T07:21:16.219Z,30.83
2022-09-25T07:23:44.930Z,30.60
2022-09-25T07:26:15.564Z,29.20
2022-09-25T07:28:45.348Z,27.77
2022-09-25T07:31:17.417Z,27.33
2022-09-25T07:33:46.197Z,27.27
2022-09-25T07:36:15.516Z,29.07
2022-09-25T07:38:46.177Z,28.27
2022-09-25T07:41:14.819Z,25.53
2022-09-25T07:43:43.457Z,25.67
2022-09-25T07:46:12.588Z,24.07
2022-09-25T07:48:42.176Z,24.90
2022-09-25T07:51:12.758Z,26.50
2022-09-25T07:53:42.696Z,23.97
2022-09-25T07:56:12.004Z,23.70
2022-09-25T07:58:40.822Z,22.57
2022-09-25T08:01:12.016Z,22.00
2022-09-25T08:03:41.927Z,21.67
2022-09-25T08:06:12.499Z,21.63
2022-09-25T08:08:41.900Z,22.30
2022-09-25T08:11:11.504Z,21.43
2022-09-25T08:13:40.633Z,20.40
2022-09-25T08:16:13.499Z,20.53
2022-09-25T08:18:45.497Z,19.13
2022-09-25T08:21:15.669Z,20.53
2022-09-25T08:23:47.929Z,18.50
2022-09-25T08:26:16.994Z,18.00
2022-09-25T08:28:45.694Z,20.17
2022-09-25T08:31:14.827Z,18.93
2022-09-25T08:33:47.440Z,18.00
2022-09-25T08:36:16.367Z,17.70
2022-09-25T08:38:45.571Z,17.60
2022-09-25T08:41:18.583Z,17.10
2022-09-25T08:43:56.816Z,17.33
2022-09-25T08:46:49.072Z,17.07
2022-09-25T08:49:23.613Z,15.57
2022-09-25T08:51:54.739Z,15.67
2022-09-25T08:54:25.533Z,15.63
2022-09-25T08:56:57.201Z,15.63
2022-09-25T08:59:29.642Z,15.03
2022-09-25T09:02:00.709Z,14.93
2022-09-25T09:04:33.388Z,21.33
2022-09-25T09:07:26.448Z,18.30
2022-09-25T09:10:01.782Z,16.60
2022-09-25T09:12:36.984Z,17.00
2022-09-25T09:15:20.029Z,18.03
2022-09-25T09:17:48.448Z,17.63
2022-09-25T09:20:21.047Z,17.63
2022-09-25T09:22:52.886Z,17.00
2022-09-25T09:25:28.957Z,17.87
2022-09-25T09:28:18.044Z,17.37
2022-09-25T09:30:57.099Z,18.40
2022-09-25T09:33:41.705Z,17.07
2022-09-25T09:36:20.602Z,17.67
2022-09-25T09:38:58.039Z,17.07
2022-09-25T09:41:40.302Z,16.97
2022-09-25T09:44:25.535Z,17.47
2022-09-25T09:47:03.195Z,16.93
2022-09-25T09:49:37.604Z,16.93
2022-09-25T09:52:12.994Z,17.03
2022-09-25T09:54:46.208Z,17.23
2022-09-25T09:57:19.982Z,17.20
2022-09-25T09:59:53.062Z,17.35
2022-09-25T10:02:33.723Z,16.27
2022-09-25T10:05:05.991Z,16.90
2022-09-25T10:07:39.371Z,17.08
2022-09-25T10:10:15.555Z,19.73
2022-09-25T10:12:48.005Z,20.10
2022-09-25T10:15:25.447Z,16.40
2022-09-25T10:17:55.438Z,17.50
2022-09-25T10:20:25.949Z,16.30
2022-09-25T10:22:57.273Z,15.63
2022-09-25T10:25:38.270Z,18.17
2022-09-25T10:28:26.683Z,17.77
2022-09-25T10:30:56.942Z,18.30
2022-09-25T10:33:27.389Z,18.70
2022-09-25T10:35:56.276Z,22.13
2022-09-25T10:38:39.229Z,19.57
2022-09-25T10:41:10.401Z,20.60
2022-09-25T10:43:52.701Z,21.60
2022-09-25T10:46:43.696Z,21.37
2022-09-25T10:49:37.336Z,21.87
2022-09-25T10:52:07.178Z,23.17
2022-09-25T10:54:43.636Z,23.37
2022-09-25T10:57:18.612Z,25.30
2022-09-25T10:59:51.948Z,28.23
2022-09-25T11:02:35.986Z,22.93
2022-09-25T11:05:05.129Z,25.03
2022-09-25T11:07:34.594Z,23.77
2022-09-25T11:10:05.060Z,25.03
2022-09-25T11:12:33.665Z,26.27
2022-09-25T11:15:06.006Z,26.43
2022-09-25T11:17:39.377Z,23.90
2022-09-25T11:20:22.644Z,24.33
2022-09-25T11:22:59.444Z,25.70
2022-09-25T11:25:40.561Z,28.57
2022-09-25T11:28:16.020Z,27.33
2022-09-25T11:30:49.423Z,21.93
2022-09-25T11:33:25.578Z,22.90
2022-09-25T11:35:57.890Z,21.33
2022-09-25T11:38:51.982Z,20.83
2022-09-25T11:41:30.034Z,18.83
2022-09-25T11:44:19.934Z,20.37
2022-09-25T11:46:56.658Z,20.47
2022-09-25T11:49:28.729Z,19.67
2022-09-25T11:52:22.921Z,20.37
2022-09-25T11:55:24.411Z,19.53
2022-09-25T11:58:02.587Z,19.87
2022-09-25T12:00:41.618Z,19.47
2022-09-25T12:03:28.404Z,24.02
2022-09-25T12:06:25.228Z,22.88
2022-09-25T12:09:10.356Z,20.25
2022-09-25T12:11:47.604Z,30.30
2022-09-25T12:14:24.222Z,21.63
2022-09-25T12:17:01.996Z,25.83
2022-09-25T12:19:38.391Z,21.53
2022-09-25T12:22:13.978Z,21.25
2022-09-25T12:24:56.497Z,20.38
2022-09-25T12:27:36.469Z,21.30
2022-09-25T12:30:17.598Z,20.30
2022-09-25T12:33:19.816Z,19.58
2022-09-25T12:35:54.478Z,21.58
2022-09-25T12:38:33.395Z,18.42
2022-09-25T12:41:08.888Z,23.83
2022-09-25T12:43:44.064Z,17.45
2022-09-25T12:46:20.657Z,18.83
2022-09-25T12:48:53.136Z,16.77
2022-09-25T12:51:28.101Z,16.63
2022-09-25T12:54:00.268Z,16.20
2022-09-25T12:56:33.477Z,15.75
2022-09-25T12:59:10.983Z,16.27
2022-09-25T13:01:46.768Z,16.05
2022-09-25T13:04:35.360Z,15.40
2022-09-25T13:07:14.740Z,14.25
2022-09-25T13:09:45.275Z,15.77
2022-09-25T13:12:22.842Z,15.65
2022-09-25T13:14:54.840Z,15.38
2022-09-25T13:17:24.909Z,15.40
2022-09-25T13:19:53.535Z,15.40
2022-09-25T13:22:25.685Z,14.82
2022-09-25T13:25:02.153Z,15.02
2022-09-25T13:27:39.619Z,14.18
2022-09-25T13:30:20.281Z,15.02
2022-09-25T13:32:52.701Z,13.85
2022-09-25T13:35:23.317Z,14.50
2022-09-25T13:37:55.245Z,14.15
2022-09-25T13:40:43.014Z,13.75
2022-09-25T13:43:20.752Z,13.95
2022-09-25T13:45:50.323Z,15.20
2022-09-25T13:48:37.912Z,14.55
2022-09-25T13:51:27.813Z,15.68
2022-09-25T13:53:59.167Z,15.02
2022-09-25T13:56:48.354Z,15.65
2022-09-25T13:59:38.440Z,16.17
2022-09-25T14:02:43.854Z,14.23
2022-09-25T14:05:18.466Z,15.55
2022-09-25T14:07:49.223Z,16.10
2022-09-25T14:10:19.059Z,16.38
2022-09-25T14:12:50.400Z,15.60
2022-09-25T14:15:26.868Z,15.73
2022-09-25T14:17:58.073Z,15.52
2022-09-25T14:20:39.148Z,17.08
2022-09-25T14:23:16.089Z,16.45
2022-09-25T14:25:47.058Z,13.57
2022-09-25T14:28:20.701Z,14.77
2022-09-25T14:31:10.595Z,18.60
2022-09-25T14:34:02.601Z,15.07
2022-09-25T14:36:38.170Z,15.97
2022-09-25T14:39:22.946Z,17.57
2022-09-25T14:42:45.827Z,17.50
2022-09-25T14:45:37.593Z,16.53
2022-09-25T14:48:11.724Z,17.57
2022-09-25T14:50:44.719Z,15.37
2022-09-25T14:53:19.293Z,15.97
2022-09-25T14:55:52.949Z,14.43
2022-09-25T14:58:27.757Z,11.97
2022-09-25T15:00:59.069Z,11.33
2022-09-25T15:03:31.457Z,12.03
2022-09-25T15:06:02.371Z,14.03
2022-09-25T15:08:37.557Z,10.83
2022-09-25T15:11:12.826Z,12.03
2022-09-25T15:13:42.253Z,9.80
2022-09-25T15:16:34.009Z,9.27
2022-09-25T15:19:04.322Z,8.97
2022-09-25T15:21:34.921Z,9.07
2022-09-25T15:24:10.902Z,8.00
2022-09-25T15:26:45.516Z,9.47
2022-09-25T15:29:18.702Z,8.33
2022-09-25T15:31:51.421Z,9.37
2022-09-25T15:34:25.169Z,8.73
2022-09-25T15:36:53.549Z,8.63
2022-09-25T15:39:25.507Z,8.40
2022-09-25T15:41:54.034Z,9.20
2022-09-25T15:44:23.801Z,9.40
2022-09-25T15:46:54.136Z,9.27
2022-09-25T15:49:26.846Z,10.07
2022-09-25T15:52:01.351Z,10.40
2022-09-25T15:54:37.947Z,10.73
2022-09-25T15:57:11.163Z,11.13
2022-09-25T15:59:59.975Z,11.07
2022-09-25T16:02:52.066Z,8.30
2022-09-25T16:05:33.096Z,10.07
2022-09-25T16:08:29.482Z,51.37
2022-09-25T16:11:15.674Z,10.10
2022-09-25T16:13:48.830Z,8.70
2022-09-25T16:16:24.345Z,9.47
2022-09-25T16:18:54.674Z,8.17
2022-09-25T16:21:27.689Z,7.47
2022-09-25T16:24:02.032Z,7.43
2022-09-25T16:26:38.652Z,7.90
2022-09-25T16:29:20.199Z,7.30
2022-09-25T16:31:53.640Z,6.27
2022-09-25T16:34:26.306Z,6.13
2022-09-25T16:36:58.049Z,6.10
2022-09-25T16:39:29.728Z,7.03
2022-09-25T16:42:00.583Z,6.87
2022-09-25T16:44:47.227Z,6.60
2022-09-25T16:47:19.253Z,6.00
2022-09-25T16:49:48.871Z,6.23
2022-09-25T16:52:21.716Z,6.93
2022-09-25T16:54:56.908Z,6.83
2022-09-25T16:57:29.225Z,6.97
2022-09-25T16:59:57.790Z,8.23
2022-09-25T17:02:37.116Z,9.60
2022-09-25T17:05:11.679Z,12.37
2022-09-25T17:07:39.888Z,15.57
2022-09-25T17:10:12.962Z,13.60
2022-09-25T17:12:43.802Z,10.83
2022-09-25T17:15:18.229Z,10.97
2022-09-25T17:17:46.791Z,11.03
2022-09-25T17:20:15.586Z,7.30
2022-09-25T17:22:43.977Z,8.70
2022-09-25T17:25:26.053Z,7.83
2022-09-25T17:27:56.153Z,6.73
2022-09-25T17:30:24.341Z,5.20
2022-09-25T17:32:52.831Z,4.40
2022-09-25T17:35:34.453Z,4.93
2022-09-25T17:38:02.712Z,5.90
2022-09-25T17:40:33.247Z,5.93
2022-09-25T17:43:03.075Z,5.40
2022-09-25T17:45:36.579Z,5.00
2022-09-25T17:48:05.278Z,6.77
2022-09-25T17:50:35.558Z,6.63
2022-09-25T17:53:05.171Z,8.67
2022-09-25T17:55:34.333Z,5.10
2022-09-25T17:58:03.868Z,5.70
2022-09-25T18:00:32.285Z,6.27
2022-09-25T18:03:00.913Z,9.93
2022-09-25T18:05:31.717Z,5.90
2022-09-25T18:08:00.101Z,4.50
2022-09-25T18:10:29.526Z,4.30
2022-09-25T18:12:59.091Z,3.67
2022-09-25T18:15:29.485Z,2.93
2022-09-25T18:17:57.909Z,3.20
2022-09-25T18:20:44.154Z,3.60
2022-09-25T18:23:12.749Z,2.70
2022-09-25T18:25:45.152Z,2.50
2022-09-25T18:28:20.314Z,2.90
2022-09-25T18:30:49.994Z,3.40
2022-09-25T18:33:18.203Z,3.90
2022-09-25T18:35:46.327Z,4.27
2022-09-25T18:38:14.564Z,4.50
2022-09-25T18:40:43.069Z,4.50
2022-09-25T18:43:11.632Z,4.73
2022-09-25T18:45:41.975Z,5.83
2022-09-25T18:48:11.538Z,8.87
2022-09-25T18:50:41.890Z,4.70
2022-09-25T18:53:10.208Z,5.83
2022-09-25T18:55:41.226Z,6.17
2022-09-25T18:58:10.024Z,5.77
2022-09-25T19:00:38.949Z,6.00
2022-09-25T19:03:07.655Z,20.07
2022-09-25T19:05:37.306Z,5.97
2022-09-25T19:08:05.535Z,5.53
2022-09-25T19:10:34.589Z,5.77
2022-09-25T19:13:02.900Z,6.70
2022-09-25T19:15:31.269Z,7.30
2022-09-25T19:18:01.020Z,6.70
2022-09-25T19:20:29.423Z,7.50
2022-09-25T19:23:00.930Z,6.97
2022-09-25T19:25:29.178Z,7.10
2022-09-25T19:27:57.513Z,10.80
2022-09-25T19:30:25.771Z,12.97
2022-09-25T19:32:53.869Z,7.33
2022-09-25T19:35:22.247Z,6.70
2022-09-25T19:37:50.534Z,8.10
2022-09-25T19:40:38.880Z,10.10
2022-09-25T19:43:08.272Z,7.23
2022-09-25T19:45:37.261Z,7.07
2022-09-25T19:48:05.642Z,7.93
2022-09-25T19:50:33.897Z,7.53
2022-09-25T19:53:02.077Z,7.77
2022-09-25T19:55:32.048Z,8.77
2022-09-25T19:58:00.292Z,8.60
2022-09-25T20:00:28.704Z,8.33
2022-09-25T20:02:57.293Z,9.50
2022-09-25T20:05:27.816Z,10.90
2022-09-25T20:07:59.706Z,9.87
2022-09-25T20:10:31.752Z,9.67
2022-09-25T20:13:00.849Z,15.63
2022-09-25T20:15:32.703Z,11.73
2022-09-25T20:18:03.360Z,9.77
2022-09-25T20:20:32.716Z,8.70
2022-09-25T20:23:02.067Z,8.73
2022-09-25T20:25:33.014Z,7.93
2022-09-25T20:28:03.239Z,7.63
2022-09-25T20:30:35.438Z,7.83
2022-09-25T20:33:04.760Z,8.17
2022-09-25T20:35:34.309Z,8.50
2022-09-25T20:38:02.804Z,8.27
2022-09-25T20:40:32.531Z,8.27
2022-09-25T20:43:01.343Z,8.90
2022-09-25T20:45:29.746Z,9.90
2022-09-25T20:47:59.498Z,11.50
2022-09-25T20:50:28.090Z,13.40
2022-09-25T20:52:57.463Z,15.17
2022-09-25T20:55:25.977Z,16.23
2022-09-25T20:57:55.836Z,16.53
2022-09-25T21:00:24.180Z,17.97
2022-09-25T21:02:52.657Z,23.33
2022-09-25T21:05:21.114Z,15.97
2022-09-25T21:07:49.489Z,14.80
2022-09-25T21:10:18.471Z,15.90
2022-09-25T21:12:47.084Z,14.97
2022-09-25T21:15:17.894Z,15.90
2022-09-25T21:17:47.247Z,16.50
2022-09-25T21:20:16.071Z,15.53
2022-09-25T21:22:45.151Z,18.20
2022-09-25T21:25:14.505Z,18.73
2022-09-25T21:27:44.051Z,19.30
2022-09-25T21:30:13.718Z,19.70
2022-09-25T21:32:44.076Z,19.93
2022-09-25T21:35:12.585Z,23.83
2022-09-25T21:37:40.899Z,33.93
2022-09-25T21:40:09.866Z,23.47
2022-09-25T21:42:38.142Z,25.57
2022-09-25T21:45:07.872Z,46.13
2022-09-25T21:47:36.144Z,30.83
2022-09-25T21:50:06.545Z,31.83
2022-09-25T21:52:34.697Z,39.83
2022-09-25T21:55:03.006Z,25.67
2022-09-25T21:57:31.316Z,19.40
2022-09-25T21:59:59.543Z,19.33
2022-09-25T22:02:31.226Z,18.97
2022-09-25T22:04:59.469Z,18.07
2022-09-25T22:07:29.200Z,18.90
2022-09-25T22:09:57.772Z,17.37
2022-09-25T22:12:26.150Z,17.07
2022-09-25T22:14:54.431Z,17.53
2022-09-25T22:17:22.937Z,17.27
2022-09-25T22:19:51.203Z,16.07
2022-09-25T22:22:19.364Z,16.83
2022-09-25T22:24:49.049Z,16.50
2022-09-25T22:27:17.366Z,15.53
2022-09-25T22:29:45.824Z,15.03
2022-09-25T22:32:14.122Z,14.47
2022-09-25T22:34:42.395Z,15.53
2022-09-25T22:37:10.976Z,15.53
2022-09-25T22:39:39.230Z,14.40
2022-09-25T22:42:09.012Z,13.80
2022-09-25T22:44:37.215Z,16.07
2022-09-25T22:47:05.694Z,16.33
2022-09-25T22:49:34.089Z,15.57
2022-09-25T22:52:02.712Z,15.60
2022-09-25T22:54:30.971Z,23.13
2022-09-25T22:56:59.315Z,18.93
2022-09-25T22:59:29.575Z,16.93
2022-09-25T23:01:58.184Z,15.63
2022-09-25T23:04:26.714Z,14.83
2022-09-25T23:06:55.189Z,15.63
2022-09-25T23:09:26.383Z,14.33
2022-09-25T23:11:55.576Z,14.63
2022-09-25T23:14:26.616Z,16.40
2022-09-25T23:16:56.945Z,15.00
2022-09-25T23:19:26.226Z,14.10
2022-09-25T23:21:55.569Z,13.50
2022-09-25T23:24:24.923Z,12.43
2022-09-25T23:26:54.335Z,12.97
2022-09-25T23:29:23.690Z,13.13
2022-09-25T23:31:52.429Z,12.47
2022-09-25T23:34:22.137Z,12.70
2022-09-25T23:36:50.383Z,13.00
2022-09-25T23:39:20.387Z,13.53
2022-09-25T23:41:48.757Z,13.90
2022-09-25T23:44:17.415Z,13.80
2022-09-25T23:46:46.065Z,13.87
2022-09-25T23:49:14.866Z,14.13
2022-09-25T23:51:46.241Z,14.10
2022-09-25T23:54:14.932Z,15.20
2022-09-25T23:56:43.820Z,14.17
2022-09-25T23:59:13.345Z,14.83
